Time;durP1;ratioP1;P1;durP2;ratioP2;P2;SDS_P1;SDS_P2;PMS_P1;PMS_P2;Temp;Humidity;BMP_temperature;BMP_pressure;BME280_temperature;BME280_humidity;BME280_pressure;Samples;Min_cycle;Max_cycle;Signal;HPM_P1;HPM_P2
2022/11/30 00:01:46;;;;;;;;;;;6.80;99.90;;;;;;5050201;28;19972;-66
2022/11/30 00:04:12;;;;;;;;;;;6.90;99.90;;;;;;5031676;28;19925;-67
2022/11/30 00:06:41;;;;;;;;;;;6.90;99.90;;;;;;5065116;28;19928;-66
2022/11/30 00:09:06;;;;;;;;;;;6.80;99.90;;;;;;5047890;28;20016;-66
2022/11/30 00:11:32;;;;;;;;;;;6.90;99.90;;;;;;5064612;28;20440;-68
2022/11/30 00:13:58;;;;;;;;;;;7.00;99.90;;;;;;5037759;28;20327;-66
2022/11/30 00:16:26;;;;;;;;;;;6.80;99.90;;;;;;5015607;28;19924;-66
2022/11/30 00:18:52;;;;;;;;;;;6.90;99.90;;;;;;5031611;28;19924;-66
2022/11/30 00:21:17;;;;;;;;;;;6.90;99.90;;;;;;5047307;28;20357;-66
2022/11/30 00:23:44;;;;;;;;;;;6.80;99.90;;;;;;5050498;28;19935;-66
2022/11/30 00:26:11;;;;;;;;;;;6.80;99.90;;;;;;5048424;28;19924;-66
2022/11/30 00:28:36;;;;;;;;;;;6.80;99.90;;;;;;5031832;28;19933;-66
2022/11/30 00:31:03;;;;;;;;;;;6.80;99.90;;;;;;5064099;28;19932;-65
2022/11/30 00:33:33;;;;;;;;;;;6.70;99.90;;;;;;5050003;28;19964;-66
2022/11/30 00:36:00;;;;;;;;;;;6.70;99.90;;;;;;5047734;28;19924;-66
2022/11/30 00:38:25;;;;;;;;;;;6.70;99.90;;;;;;5049008;28;19935;-66
2022/11/30 00:40:51;;;;;;;;;;;6.60;99.90;;;;;;5030986;28;20410;-66
2022/11/30 00:43:17;;;;;;;;;;;6.50;99.90;;;;;;5048853;28;19921;-66
2022/11/30 00:45:42;;;;;;;;;;;6.50;99.90;;;;;;5035572;28;20342;-67
2022/11/30 00:48:08;;;;;;;;;;;6.50;99.90;;;;;;5053555;28;19932;-67
2022/11/30 00:50:33;;;;;;;;;;;6.50;99.90;;;;;;5048871;28;19925;-66
2022/11/30 00:52:59;;;;;;;;;;;6.50;99.90;;;;;;5047749;28;20663;-72
2022/11/30 00:55:26;;;;;;;;;;;6.50;99.90;;;;;;5051460;28;19948;-66
2022/11/30 00:57:51;;;;;;;;;;;6.50;99.90;;;;;;5049021;28;19924;-67
2022/11/30 01:00:17;;;;;;;;;;;6.60;99.90;;;;;;5048122;28;20330;-66
2022/11/30 01:02:43;;;;;;;;;;;6.60;99.90;;;;;;5047252;28;20397;-66
2022/11/30 01:05:09;;;;;;;;;;;6.60;99.90;;;;;;5069520;28;20020;-66
2022/11/30 01:07:35;;;;;;;;;;;6.60;99.90;;;;;;5048542;28;20384;-67
2022/11/30 01:10:01;;;;;;;;;;;6.60;99.90;;;;;;5047432;28;20378;-73
2022/11/30 01:12:26;;;;;;;;;;;6.50;99.90;;;;;;5063557;28;19932;-66
2022/11/30 01:14:52;;;;;;;;;;;6.50;99.90;;;;;;5017793;28;19971;-67
2022/11/30 01:17:17;;;;;;;;;;;6.60;99.90;;;;;;5064125;28;19936;-67
2022/11/30 01:19:43;;;;;;;;;;;6.60;99.90;;;;;;5064203;28;19935;-66
2022/11/30 01:22:08;;;;;;;;;;;6.50;99.90;;;;;;5027414;28;19925;-66
2022/11/30 01:24:34;;;;;;;;;;;6.50;99.90;;;;;;5063446;28;19925;-67
2022/11/30 01:26:59;;;;;;;;;;;6.40;99.90;;;;;;5049397;28;19960;-67
2022/11/30 01:29:25;;;;;;;;;;;6.50;99.90;;;;;;5029825;28;19981;-66
2022/11/30 01:31:50;;;;;;;;;;;6.40;99.90;;;;;;5044942;28;21014;-66
2022/11/30 01:34:16;;;;;;;;;;;6.40;99.90;;;;;;5057553;28;19929;-66
2022/11/30 01:36:42;;;;;;;;;;;6.70;99.90;;;;;;5053792;27;20351;-66
2022/11/30 01:39:08;;;;;;;;;;;6.40;99.90;;;;;;5026256;28;19925;-66
2022/11/30 01:41:34;;;;;;;;;;;6.40;99.90;;;;;;5028810;28;19978;-68
2022/11/30 01:44:03;;;;;;;;;;;6.50;99.90;;;;;;5047148;28;19933;-68
2022/11/30 01:46:38;;;;;;;;;;;6.40;99.90;;;;;;5030134;28;19929;-66
2022/11/30 01:49:09;;;;;;;;;;;6.50;99.90;;;;;;5030357;28;20020;-66
2022/11/30 01:51:58;;;;;;;;;;;6.40;99.90;;;;;;5023067;28;19925;-67
2022/11/30 01:54:27;;;;;;;;;;;6.50;99.90;;;;;;5036839;28;19925;-66
2022/11/30 01:56:55;;;;;;;;;;;6.50;99.90;;;;;;5048339;28;19932;-66
2022/11/30 01:59:21;;;;;;;;;;;6.40;99.90;;;;;;5045852;28;19936;-66
2022/11/30 02:01:46;;;;;;;;;;;6.40;99.90;;;;;;5047534;28;19925;-67
2022/11/30 02:04:41;;;;;;;;;;;6.40;99.90;;;;;;5047232;28;19925;-67
2022/11/30 02:07:07;;;;;;;;;;;6.40;99.90;;;;;;5037646;27;20011;-68
2022/11/30 02:09:35;;;;;;;;;;;6.40;99.90;;;;;;5054174;28;20020;-67
2022/11/30 02:12:02;;;;;;;;;;;6.40;99.90;;;;;;5029826;28;20688;-67
2022/11/30 02:14:33;;;;;;;;;;;6.30;99.90;;;;;;5044346;28;19925;-67
2022/11/30 02:17:08;;;;;;;;;;;6.30;99.90;;;;;;5054309;28;19971;-67
2022/11/30 02:19:52;;;;;;;;;;;6.30;99.90;;;;;;5062728;28;19929;-68
2022/11/30 02:22:25;;;;;;;;;;;6.30;99.90;;;;;;5047050;28;19924;-67
2022/11/30 02:25:09;;;;;;;;;;;6.40;99.90;;;;;;5062881;28;19932;-66
2022/11/30 02:27:48;;;;;;;;;;;6.30;99.90;;;;;;5044861;28;20012;-67
2022/11/30 02:30:15;;;;;;;;;;;6.40;99.90;;;;;;5056543;27;19929;-71
2022/11/30 02:33:01;;;;;;;;;;;6.40;99.90;;;;;;5046997;28;19932;-67
2022/11/30 02:35:29;;;;;;;;;;;6.40;99.90;;;;;;5046658;28;19978;-67
2022/11/30 02:37:55;;;;;;;;;;;6.40;99.90;;;;;;5063239;28;19925;-68
2022/11/30 02:40:21;;;;;;;;;;;6.40;99.90;;;;;;5049400;28;19944;-67
2022/11/30 02:42:48;;;;;;;;;;;6.50;99.90;;;;;;5047017;27;20293;-67
2022/11/30 02:45:14;;;;;;;;;;;6.50;99.90;;;;;;5029687;28;20319;-74
2022/11/30 02:47:44;;;;;;;;;;;6.50;99.90;;;;;;5029403;28;19944;-67
2022/11/30 02:50:13;;;;;;;;;;;6.50;99.90;;;;;;5051791;28;19925;-67
2022/11/30 02:52:38;;;;;;;;;;;6.50;99.90;;;;;;5049642;28;19985;-67
2022/11/30 02:55:05;;;;;;;;;;;6.50;99.90;;;;;;5046757;27;19932;-70
2022/11/30 02:57:31;;;;;;;;;;;6.50;99.90;;;;;;5046504;28;19925;-67
2022/11/30 02:59:57;;;;;;;;;;;6.50;99.90;;;;;;5061994;27;19947;-67
2022/11/30 03:02:23;;;;;;;;;;;6.50;99.90;;;;;;5046629;28;19981;-66
2022/11/30 03:04:48;;;;;;;;;;;6.50;99.90;;;;;;5047009;28;20335;-68
2022/11/30 03:07:14;;;;;;;;;;;6.40;99.90;;;;;;5046036;28;19932;-68
2022/11/30 03:09:39;;;;;;;;;;;6.50;99.90;;;;;;5046244;28;19932;-67
2022/11/30 03:12:05;;;;;;;;;;;6.40;99.90;;;;;;5048847;28;19929;-67
2022/11/30 03:14:30;;;;;;;;;;;6.40;99.90;;;;;;5032355;28;19924;-67
2022/11/30 03:16:56;;;;;;;;;;;6.40;99.90;;;;;;5040524;28;19929;-66
2022/11/30 03:19:22;;;;;;;;;;;6.40;99.90;;;;;;5033051;28;19983;-67
2022/11/30 03:21:47;;;;;;;;;;;6.50;99.90;;;;;;5050342;27;19933;-67
2022/11/30 03:24:13;;;;;;;;;;;6.40;99.90;;;;;;5050149;28;19925;-67
2022/11/30 03:26:39;;;;;;;;;;;6.50;99.90;;;;;;5031564;28;20019;-67
2022/11/30 03:29:04;;;;;;;;;;;6.50;99.90;;;;;;5032523;28;19925;-67
2022/11/30 03:31:31;;;;;;;;;;;6.50;99.90;;;;;;5055120;28;19936;-67
2022/11/30 03:33:56;;;;;;;;;;;6.50;99.90;;;;;;5031910;28;19938;-67
2022/11/30 03:36:22;;;;;;;;;;;6.40;99.90;;;;;;5064746;27;20474;-72
2022/11/30 03:38:47;;;;;;;;;;;6.50;99.90;;;;;;5031825;28;20027;-67
2022/11/30 03:41:15;;;;;;;;;;;6.50;99.90;;;;;;5064504;27;19926;-67
2022/11/30 03:43:43;;;;;;;;;;;6.40;99.90;;;;;;5015214;28;19925;-67
2022/11/30 03:46:09;;;;;;;;;;;6.40;99.90;;;;;;5049876;28;20003;-67
2022/11/30 03:48:35;;;;;;;;;;;6.50;99.90;;;;;;5064712;27;20058;-67
2022/11/30 03:51:01;;;;;;;;;;;6.50;99.90;;;;;;5067756;27;19929;-66
2022/11/30 03:53:27;;;;;;;;;;;6.40;99.90;;;;;;5065996;27;19928;-66
2022/11/30 03:55:56;;;;;;;;;;;6.50;99.90;;;;;;5055582;28;19931;-67
2022/11/30 03:58:22;;;;;;;;;;;6.50;99.90;;;;;;5047961;28;20424;-67
2022/11/30 04:00:48;;;;;;;;;;;6.50;99.90;;;;;;5050395;28;19929;-68
2022/11/30 04:03:14;;;;;;;;;;;6.50;99.90;;;;;;5051069;28;19969;-68
2022/11/30 04:05:39;;;;;;;;;;;6.70;99.90;;;;;;5049312;28;19993;-67
2022/11/30 04:08:05;;;;;;;;;;;6.50;99.90;;;;;;5031870;28;19935;-66
2022/11/30 04:10:30;;;;;;;;;;;6.50;99.90;;;;;;5064548;27;19987;-67
2022/11/30 04:12:56;;;;;;;;;;;6.40;99.90;;;;;;5063475;28;19928;-66
2022/11/30 04:15:21;;;;;;;;;;;6.50;99.90;;;;;;5028829;28;20008;-67
2022/11/30 04:17:47;;;;;;;;;;;6.50;99.90;;;;;;5047868;28;20650;-66
2022/11/30 04:20:13;;;;;;;;;;;6.50;99.90;;;;;;5048870;28;20004;-67
2022/11/30 04:22:38;;;;;;;;;;;6.50;99.90;;;;;;5053797;28;19932;-67
2022/11/30 04:25:04;;;;;;;;;;;6.50;99.90;;;;;;5055198;28;19925;-66
2022/11/30 04:27:30;;;;;;;;;;;6.50;99.90;;;;;;5014497;28;19964;-70
2022/11/30 04:29:55;;;;;;;;;;;6.40;99.90;;;;;;5030898;28;19933;-67
2022/11/30 04:32:21;;;;;;;;;;;6.50;99.90;;;;;;5051218;27;19993;-66
2022/11/30 04:34:46;;;;;;;;;;;6.50;99.90;;;;;;5064410;28;19983;-66
2022/11/30 04:37:12;;;;;;;;;;;6.50;99.90;;;;;;5031383;28;19947;-68
2022/11/30 04:39:37;;;;;;;;;;;6.50;99.90;;;;;;5057003;28;19925;-67
2022/11/30 04:42:03;;;;;;;;;;;6.60;99.90;;;;;;5018714;28;19925;-67
2022/11/30 04:44:28;;;;;;;;;;;6.50;99.90;;;;;;5033673;28;20045;-68
2022/11/30 04:46:54;;;;;;;;;;;6.40;99.90;;;;;;5032698;28;19929;-66
2022/11/30 04:49:19;;;;;;;;;;;6.50;99.90;;;;;;5042664;28;19950;-66
2022/11/30 04:51:45;;;;;;;;;;;6.40;99.90;;;;;;5038367;28;20283;-66
2022/11/30 04:54:11;;;;;;;;;;;6.40;99.90;;;;;;5044427;27;20297;-67
2022/11/30 04:56:36;;;;;;;;;;;6.40;99.90;;;;;;5037356;28;20281;-67
2022/11/30 04:59:02;;;;;;;;;;;6.40;99.90;;;;;;5039363;28;19925;-65
2022/11/30 05:01:27;;;;;;;;;;;6.40;99.90;;;;;;5040947;28;19935;-66
2022/11/30 05:03:53;;;;;;;;;;;6.40;99.90;;;;;;5043926;27;20598;-68
2022/11/30 05:06:18;;;;;;;;;;;6.40;99.90;;;;;;5030493;28;19941;-67
2022/11/30 05:08:44;;;;;;;;;;;6.40;99.90;;;;;;5029729;28;19987;-66
2022/11/30 05:11:10;;;;;;;;;;;6.40;99.90;;;;;;5026533;28;19944;-67
2022/11/30 05:13:35;;;;;;;;;;;6.40;99.90;;;;;;5036361;28;19944;-72
2022/11/30 05:16:01;;;;;;;;;;;6.40;99.90;;;;;;5058243;28;20015;-67
2022/11/30 05:18:28;;;;;;;;;;;6.40;99.90;;;;;;5014003;28;20316;-66
2022/11/30 05:20:53;;;;;;;;;;;6.40;99.90;;;;;;5046141;28;19929;-66
2022/11/30 05:23:19;;;;;;;;;;;6.30;99.90;;;;;;5055632;28;20012;-67
2022/11/30 05:25:45;;;;;;;;;;;6.30;99.90;;;;;;5051589;28;20328;-66
2022/11/30 05:28:11;;;;;;;;;;;6.30;99.90;;;;;;5058656;28;19929;-67
2022/11/30 05:30:37;;;;;;;;;;;6.40;99.90;;;;;;5035893;28;20011;-73
2022/11/30 05:33:03;;;;;;;;;;;6.30;99.90;;;;;;5043536;28;19925;-66
2022/11/30 05:35:28;;;;;;;;;;;6.30;99.90;;;;;;5042998;28;20004;-66
2022/11/30 05:37:54;;;;;;;;;;;6.30;99.90;;;;;;5045027;28;19928;-66
2022/11/30 05:40:19;;;;;;;;;;;6.30;99.90;;;;;;5039694;28;19952;-66
2022/11/30 05:42:45;;;;;;;;;;;6.40;99.90;;;;;;5050640;27;19933;-66
2022/11/30 05:45:11;;;;;;;;;;;6.30;99.90;;;;;;5039804;28;20066;-66
2022/11/30 05:47:36;;;;;;;;;;;6.30;99.90;;;;;;5052832;28;19969;-66
2022/11/30 05:50:02;;;;;;;;;;;6.30;99.90;;;;;;5050868;28;19932;-66
2022/11/30 05:52:27;;;;;;;;;;;6.30;99.90;;;;;;5025736;27;19932;-67
2022/11/30 05:54:55;;;;;;;;;;;6.30;99.90;;;;;;5021272;28;20698;-68
2022/11/30 05:57:20;;;;;;;;;;;6.20;99.90;;;;;;5062758;27;19950;-66
2022/11/30 05:59:46;;;;;;;;;;;6.20;99.90;;;;;;5047560;27;19925;-66
2022/11/30 06:02:12;;;;;;;;;;;6.20;99.90;;;;;;5047595;28;20454;-66
2022/11/30 06:04:37;;;;;;;;;;;6.20;99.90;;;;;;5046285;28;19936;-67
2022/11/30 06:07:03;;;;;;;;;;;6.10;99.90;;;;;;5062422;28;19971;-68
2022/11/30 06:09:28;;;;;;;;;;;6.20;99.90;;;;;;5032541;28;19930;-66
2022/11/30 06:11:54;;;;;;;;;;;6.20;99.90;;;;;;5052864;28;19924;-67
2022/11/30 06:14:20;;;;;;;;;;;6.20;99.90;;;;;;5014824;28;20352;-67
2022/11/30 06:16:45;;;;;;;;;;;6.40;99.90;;;;;;5029617;28;19932;-68
2022/11/30 06:19:11;;;;;;;;;;;6.10;99.90;;;;;;5047939;28;20317;-67
2022/11/30 06:21:36;;;;;;;;;;;6.10;99.90;;;;;;5064504;28;19933;-67
2022/11/30 06:24:02;;;;;;;;;;;6.10;99.90;;;;;;5050216;28;19928;-67
2022/11/30 06:26:27;;;;;;;;;;;6.10;99.90;;;;;;5058347;28;19933;-66
2022/11/30 06:28:53;;;;;;;;;;;6.10;99.90;;;;;;5043105;28;19969;-67
2022/11/30 06:31:19;;;;;;;;;;;6.10;99.90;;;;;;5058849;28;19932;-67
2022/11/30 06:33:44;;;;;;;;;;;6.00;99.90;;;;;;5040397;28;20370;-73
2022/11/30 06:36:10;;;;;;;;;;;6.00;99.90;;;;;;5050018;28;20016;-68
2022/11/30 06:38:36;;;;;;;;;;;6.10;99.90;;;;;;5024197;28;19933;-69
2022/11/30 06:41:05;;;;;;;;;;;6.00;99.90;;;;;;5037479;27;20313;-66
2022/11/30 06:43:32;;;;;;;;;;;6.00;99.90;;;;;;5029593;28;19925;-67
2022/11/30 06:45:58;;;;;;;;;;;6.00;99.90;;;;;;5031000;28;20354;-68
2022/11/30 06:48:23;;;;;;;;;;;6.00;99.90;;;;;;5071248;28;20020;-68
2022/11/30 06:50:49;;;;;;;;;;;6.00;99.90;;;;;;5032331;28;19925;-72
2022/11/30 06:53:14;;;;;;;;;;;6.00;99.90;;;;;;5053027;28;19978;-67
2022/11/30 06:55:41;;;;;;;;;;;6.00;99.90;;;;;;5050388;28;19929;-67
2022/11/30 06:58:07;;;;;;;;;;;6.00;99.90;;;;;;5050247;28;20410;-68
2022/11/30 07:00:33;;;;;;;;;;;6.00;99.90;;;;;;5016922;28;20370;-67
2022/11/30 07:02:59;;;;;;;;;;;6.00;99.90;;;;;;5039441;28;19928;-67
2022/11/30 07:05:24;;;;;;;;;;;6.00;99.90;;;;;;5050758;27;19981;-67
2022/11/30 07:07:50;;;;;;;;;;;6.00;99.90;;;;;;5017151;28;19925;-73
2022/11/30 07:10:16;;;;;;;;;;;6.00;99.90;;;;;;5058265;28;19929;-67
2022/11/30 07:12:41;;;;;;;;;;;6.00;99.90;;;;;;5041223;28;19940;-68
2022/11/30 07:15:07;;;;;;;;;;;6.10;99.90;;;;;;5051847;28;19926;-66
2022/11/30 07:17:33;;;;;;;;;;;5.90;99.90;;;;;;5058241;28;19931;-67
2022/11/30 07:19:58;;;;;;;;;;;5.90;99.90;;;;;;5068699;28;19990;-66
2022/11/30 07:22:24;;;;;;;;;;;5.90;99.90;;;;;;5023849;28;19925;-66
2022/11/30 07:27:34;;;;;;;;;;;5.90;99.90;;;;;;5051222;28;19925;-67
2022/11/30 07:29:59;;;;;;;;;;;6.00;99.90;;;;;;5034210;28;19997;-68
2022/11/30 07:32:25;;;;;;;;;;;6.00;99.90;;;;;;5040763;28;19933;-66
2022/11/30 07:34:51;;;;;;;;;;;6.00;99.90;;;;;;5042078;28;19929;-66
2022/11/30 07:37:16;;;;;;;;;;;6.00;99.90;;;;;;5038557;28;19925;-67
2022/11/30 07:39:42;;;;;;;;;;;5.90;99.90;;;;;;5051552;28;19947;-68
2022/11/30 07:42:07;;;;;;;;;;;5.90;99.90;;;;;;5006346;28;19928;-66
2022/11/30 07:44:33;;;;;;;;;;;5.90;99.90;;;;;;5064709;28;19975;-66
2022/11/30 07:46:59;;;;;;;;;;;5.90;99.90;;;;;;5049736;28;19924;-67
2022/11/30 07:49:25;;;;;;;;;;;5.90;99.90;;;;;;5050859;27;19933;-67
2022/11/30 07:51:50;;;;;;;;;;;5.90;99.90;;;;;;5052891;28;19985;-68
2022/11/30 07:54:16;;;;;;;;;;;5.90;99.90;;;;;;5031087;28;19931;-67
2022/11/30 07:56:42;;;;;;;;;;;5.90;99.90;;;;;;5048117;28;19931;-66
2022/11/30 07:59:08;;;;;;;;;;;5.90;99.90;;;;;;5049195;28;19936;-66
2022/11/30 08:01:33;;;;;;;;;;;5.90;99.90;;;;;;5057880;28;19928;-67
2022/11/30 08:03:59;;;;;;;;;;;5.90;99.90;;;;;;5047680;28;19936;-72
2022/11/30 08:06:26;;;;;;;;;;;6.30;99.90;;;;;;5063253;27;19936;-68
2022/11/30 08:08:53;;;;;;;;;;;5.90;99.90;;;;;;5056381;28;20321;-68
2022/11/30 08:11:23;;;;;;;;;;;5.90;99.90;;;;;;5040422;28;19921;-66
2022/11/30 08:13:49;;;;;;;;;;;5.90;99.90;;;;;;5012541;28;19929;-67
2022/11/30 08:16:16;;;;;;;;;;;5.90;99.90;;;;;;5040695;28;20051;-67
2022/11/30 08:18:42;;;;;;;;;;;5.90;99.90;;;;;;5031323;28;19942;-67
2022/11/30 08:21:09;;;;;;;;;;;5.90;99.90;;;;;;5059256;28;19977;-67
2022/11/30 08:23:36;;;;;;;;;;;5.90;99.90;;;;;;5032320;28;19925;-67
2022/11/30 08:26:06;;;;;;;;;;;5.90;99.90;;;;;;5036417;28;19978;-71
2022/11/30 08:28:34;;;;;;;;;;;5.90;99.90;;;;;;5045460;28;19936;-66
2022/11/30 08:31:04;;;;;;;;;;;5.90;99.90;;;;;;5038803;28;19925;-70
2022/11/30 08:33:31;;;;;;;;;;;5.90;99.90;;;;;;5063315;28;19928;-67
2022/11/30 08:36:32;;;;;;;;;;;5.90;99.90;;;;;;5039518;28;19924;-67
2022/11/30 08:38:58;;;;;;;;;;;5.90;99.90;;;;;;4991161;28;19959;-67
2022/11/30 08:41:24;;;;;;;;;;;5.90;99.90;;;;;;5035169;27;19956;-66
2022/11/30 08:43:50;;;;;;;;;;;6.20;99.90;;;;;;5035561;28;20294;-66
2022/11/30 08:46:17;;;;;;;;;;;6.00;99.90;;;;;;5039912;27;19983;-67
2022/11/30 08:48:43;;;;;;;;;;;5.90;99.90;;;;;;5019393;28;19940;-66
2022/11/30 08:51:10;;;;;;;;;;;6.00;99.90;;;;;;5050350;28;19928;-68
2022/11/30 08:53:35;;;;;;;;;;;6.00;99.90;;;;;;5077164;27;20023;-67
2022/11/30 08:56:03;;;;;;;;;;;6.00;99.90;;;;;;5062521;27;20405;-68
2022/11/30 08:58:29;;;;;;;;;;;6.00;99.90;;;;;;5048263;27;19933;-67
2022/11/30 09:01:04;;;;;;;;;;;6.10;99.90;;;;;;5070207;27;20023;-66
2022/11/30 09:03:29;;;;;;;;;;;6.00;99.90;;;;;;5048703;28;19966;-66
2022/11/30 09:06:01;;;;;;;;;;;6.00;99.90;;;;;;5047201;28;19932;-67
2022/11/30 09:08:27;;;;;;;;;;;6.00;99.90;;;;;;5070973;27;19925;-66
2022/11/30 09:10:52;;;;;;;;;;;6.10;99.90;;;;;;5060979;27;20293;-67
2022/11/30 09:13:18;;;;;;;;;;;6.10;99.90;;;;;;5033091;28;19982;-69
2022/11/30 09:15:44;;;;;;;;;;;6.10;99.90;;;;;;5045132;27;19932;-66
2022/11/30 09:18:10;;;;;;;;;;;6.30;99.90;;;;;;5046054;28;19928;-67
2022/11/30 09:20:36;;;;;;;;;;;6.10;99.90;;;;;;5046882;28;19933;-66
2022/11/30 09:23:01;;;;;;;;;;;6.10;99.90;;;;;;5044953;28;19925;-66
2022/11/30 09:25:27;;;;;;;;;;;6.10;99.90;;;;;;5049960;28;19949;-67
2022/11/30 09:27:53;;;;;;;;;;;6.20;99.90;;;;;;5057081;27;19925;-67
2022/11/30 09:30:18;;;;;;;;;;;6.20;99.90;;;;;;5042404;28;20066;-67
2022/11/30 09:32:44;;;;;;;;;;;6.20;99.90;;;;;;5052740;28;20294;-67
2022/11/30 09:35:09;;;;;;;;;;;6.20;99.90;;;;;;5055801;28;19964;-66
2022/11/30 09:37:35;;;;;;;;;;;6.20;99.90;;;;;;5055725;28;19933;-66
2022/11/30 09:40:01;;;;;;;;;;;6.30;99.90;;;;;;5043759;28;19969;-66
2022/11/30 09:42:40;;;;;;;;;;;6.30;99.90;;;;;;5036410;27;19925;-66
2022/11/30 09:45:10;;;;;;;;;;;6.30;99.90;;;;;;5048072;28;20009;-66
2022/11/30 09:47:55;;;;;;;;;;;6.30;99.90;;;;;;5030340;28;19933;-66
2022/11/30 09:50:23;;;;;;;;;;;6.20;99.90;;;;;;5029484;28;20035;-67
2022/11/30 09:52:51;;;;;;;;;;;6.30;99.90;;;;;;5047178;28;19952;-68
2022/11/30 09:55:23;;;;;;;;;;;6.30;99.90;;;;;;5051598;28;19931;-69
2022/11/30 09:57:51;;;;;;;;;;;6.40;99.90;;;;;;5030746;28;20284;-67
2022/11/30 10:00:18;;;;;;;;;;;6.30;99.90;;;;;;5029895;28;19972;-67
2022/11/30 10:02:44;;;;;;;;;;;6.30;99.90;;;;;;5047102;28;19929;-67
2022/11/30 10:05:11;;;;;;;;;;;6.40;99.90;;;;;;5047462;28;19925;-70
2022/11/30 10:07:52;;;;;;;;;;;6.30;99.90;;;;;;5033033;28;20032;-67
2022/11/30 10:10:47;;;;;;;;;;;6.30;99.90;;;;;;5037943;28;19929;-67
2022/11/30 10:13:28;;;;;;;;;;;6.40;99.90;;;;;;5058616;27;20016;-73
2022/11/30 10:16:12;;;;;;;;;;;6.40;99.90;;;;;;5063109;28;21245;-66
2022/11/30 10:18:53;;;;;;;;;;;6.40;99.90;;;;;;5040256;28;20446;-68
2022/11/30 10:21:19;;;;;;;;;;;6.40;99.90;;;;;;5026727;28;19936;-66
2022/11/30 10:23:47;;;;;;;;;;;6.40;99.90;;;;;;5048396;27;19924;-65
2022/11/30 10:26:22;;;;;;;;;;;6.40;99.90;;;;;;5048906;28;19929;-65
2022/11/30 10:28:55;;;;;;;;;;;6.40;99.90;;;;;;5044442;27;20004;-67
2022/11/30 10:31:31;;;;;;;;;;;6.40;99.90;;;;;;5064118;27;19950;-67
2022/11/30 10:33:59;;;;;;;;;;;6.40;99.90;;;;;;5047557;28;19925;-65
2022/11/30 10:36:41;;;;;;;;;;;6.50;99.90;;;;;;5026239;27;20429;-68
2022/11/30 10:39:16;;;;;;;;;;;6.50;99.90;;;;;;5044438;28;20020;-67
2022/11/30 10:41:45;;;;;;;;;;;6.50;99.90;;;;;;5048352;28;20319;-66
2022/11/30 10:44:13;;;;;;;;;;;6.50;99.90;;;;;;5050268;28;20412;-65
2022/11/30 10:46:43;;;;;;;;;;;6.50;99.90;;;;;;5059073;28;19932;-66
2022/11/30 10:49:14;;;;;;;;;;;6.50;99.90;;;;;;5077650;27;19935;-66
2022/11/30 10:51:42;;;;;;;;;;;6.60;99.90;;;;;;5041178;27;20276;-64
2022/11/30 10:54:13;;;;;;;;;;;6.60;99.90;;;;;;5031539;28;20322;-65
2022/11/30 10:56:38;;;;;;;;;;;6.60;99.90;;;;;;5043896;28;20430;-67
2022/11/30 10:59:23;;;;;;;;;;;6.60;99.90;;;;;;5052169;28;19924;-65
2022/11/30 11:01:48;;;;;;;;;;;6.60;99.90;;;;;;5029769;28;19925;-66
2022/11/30 11:04:15;;;;;;;;;;;6.60;99.90;;;;;;5049524;27;19935;-66
2022/11/30 11:06:42;;;;;;;;;;;6.70;99.90;;;;;;5043931;27;20239;-66
2022/11/30 11:09:26;;;;;;;;;;;6.60;99.90;;;;;;5045745;28;20385;-65
2022/11/30 11:11:57;;;;;;;;;;;6.60;99.90;;;;;;5045882;28;19979;-65
2022/11/30 11:14:23;;;;;;;;;;;6.80;99.90;;;;;;5041603;28;20331;-65
2022/11/30 11:16:50;;;;;;;;;;;6.70;99.90;;;;;;5041179;28;20285;-66
2022/11/30 11:19:23;;;;;;;;;;;6.70;99.90;;;;;;5035962;28;19967;-66
2022/11/30 11:21:49;;;;;;;;;;;6.70;99.90;;;;;;5038045;27;19933;-66
2022/11/30 11:24:18;;;;;;;;;;;6.80;99.90;;;;;;5075829;28;19959;-65
2022/11/30 11:26:50;;;;;;;;;;;6.80;99.90;;;;;;5049793;28;19925;-64
2022/11/30 11:29:30;;;;;;;;;;;6.80;99.90;;;;;;5034602;27;19976;-66
2022/11/30 11:32:06;;;;;;;;;;;6.80;99.90;;;;;;5041651;27;19932;-61
2022/11/30 11:34:33;;;;;;;;;;;6.80;99.90;;;;;;5044992;28;20001;-65
2022/11/30 11:37:19;;;;;;;;;;;6.90;99.90;;;;;;5062459;27;19953;-64
2022/11/30 11:39:58;;;;;;;;;;;6.80;99.90;;;;;;5040817;28;19929;-64
2022/11/30 11:42:25;;;;;;;;;;;6.90;99.90;;;;;;5057205;27;19925;-64
2022/11/30 11:44:52;;;;;;;;;;;6.90;99.90;;;;;;5009492;28;19924;-65
2022/11/30 11:47:31;;;;;;;;;;;6.90;99.90;;;;;;5047019;27;19924;-65
2022/11/30 11:50:04;;;;;;;;;;;6.90;99.90;;;;;;5038929;28;19924;-64
2022/11/30 11:52:30;;;;;;;;;;;6.90;99.90;;;;;;5039389;27;19945;-65
2022/11/30 11:54:57;;;;;;;;;;;6.90;99.90;;;;;;5043252;28;19925;-63
2022/11/30 11:57:31;;;;;;;;;;;6.90;99.90;;;;;;5043948;28;19928;-62
2022/11/30 12:00:03;;;;;;;;;;;6.90;99.90;;;;;;5037110;28;19935;-63
2022/11/30 12:02:41;;;;;;;;;;;6.80;99.90;;;;;;5047619;28;19933;-65
2022/11/30 12:05:25;;;;;;;;;;;6.90;99.90;;;;;;5041223;28;19932;-64
2022/11/30 12:08:09;;;;;;;;;;;6.80;99.90;;;;;;5042574;27;20398;-66
2022/11/30 12:10:42;;;;;;;;;;;6.80;99.90;;;;;;5027539;28;19929;-63
2022/11/30 12:13:30;;;;;;;;;;;6.80;99.90;;;;;;5037878;28;19936;-64
2022/11/30 12:16:18;;;;;;;;;;;6.80;99.90;;;;;;5043095;27;19947;-63
2022/11/30 12:18:56;;;;;;;;;;;6.80;99.90;;;;;;5037571;28;20390;-64
2022/11/30 12:21:28;;;;;;;;;;;6.80;99.90;;;;;;5042065;28;19929;-63
2022/11/30 12:23:56;;;;;;;;;;;6.80;99.90;;;;;;5060928;28;19928;-63
2022/11/30 12:26:25;;;;;;;;;;;6.80;99.90;;;;;;5047846;28;20021;-63
2022/11/30 12:29:20;;;;;;;;;;;6.80;99.90;;;;;;5031007;28;20046;-62
2022/11/30 12:31:58;;;;;;;;;;;6.80;99.90;;;;;;5045026;28;19932;-63
2022/11/30 12:34:33;;;;;;;;;;;6.80;99.90;;;;;;5064520;28;19985;-64
2022/11/30 12:37:05;;;;;;;;;;;6.80;99.90;;;;;;5048923;28;19932;-62
2022/11/30 12:39:49;;;;;;;;;;;6.80;99.90;;;;;;5045494;28;20004;-63
2022/11/30 12:42:21;;;;;;;;;;;6.70;99.90;;;;;;5043367;28;19955;-65
2022/11/30 12:44:57;;;;;;;;;;;6.70;99.90;;;;;;5047718;28;20389;-65
2022/11/30 12:47:24;;;;;;;;;;;6.70;99.90;;;;;;5041326;28;19929;-63
2022/11/30 12:49:53;;;;;;;;;;;6.70;99.90;;;;;;5029808;28;19960;-62
2022/11/30 12:52:31;;;;;;;;;;;6.60;99.90;;;;;;5028034;28;20404;-61
2022/11/30 12:55:05;;;;;;;;;;;6.60;99.90;;;;;;5013420;28;19964;-61
2022/11/30 12:57:42;;;;;;;;;;;6.70;99.90;;;;;;5030226;27;19964;-64
2022/11/30 13:00:20;;;;;;;;;;;6.60;99.90;;;;;;5023767;28;20045;-62
2022/11/30 13:03:09;;;;;;;;;;;6.60;99.90;;;;;;5043803;28;19925;-69
2022/11/30 13:05:43;;;;;;;;;;;6.60;99.90;;;;;;5029215;28;19936;-62
2022/11/30 13:08:20;;;;;;;;;;;6.60;99.90;;;;;;5046213;27;19975;-62
2022/11/30 13:10:48;;;;;;;;;;;6.60;99.90;;;;;;5048370;28;19933;-63
2022/11/30 13:13:17;;;;;;;;;;;6.60;99.90;;;;;;5022680;28;19975;-62
2022/11/30 13:15:43;;;;;;;;;;;6.70;99.90;;;;;;5043460;28;20399;-63
2022/11/30 13:18:16;;;;;;;;;;;6.60;99.90;;;;;;5039353;28;19977;-63
2022/11/30 13:20:46;;;;;;;;;;;6.60;99.90;;;;;;5042381;28;19937;-62
2022/11/30 13:23:30;;;;;;;;;;;6.60;99.90;;;;;;5047748;27;19931;-63
2022/11/30 13:26:11;;;;;;;;;;;6.60;99.90;;;;;;5047929;28;19933;-63
2022/11/30 13:28:45;;;;;;;;;;;6.60;99.90;;;;;;5034691;28;20057;-67
2022/11/30 13:31:18;;;;;;;;;;;6.60;99.90;;;;;;5031594;28;19933;-63
2022/11/30 13:33:55;;;;;;;;;;;6.70;99.90;;;;;;5047273;28;20390;-63
2022/11/30 13:36:23;;;;;;;;;;;6.60;99.90;;;;;;5064049;28;19950;-64
2022/11/30 13:39:15;;;;;;;;;;;6.60;99.90;;;;;;5029309;28;20445;-64
2022/11/30 13:41:42;;;;;;;;;;;6.60;99.90;;;;;;5053626;28;19925;-63
2022/11/30 13:44:27;;;;;;;;;;;6.60;99.90;;;;;;5027917;28;19928;-64
2022/11/30 13:46:52;;;;;;;;;;;6.50;99.90;;;;;;5041948;28;20267;-63
2022/11/30 13:49:44;;;;;;;;;;;6.60;99.90;;;;;;5042020;28;19925;-63
2022/11/30 13:52:13;;;;;;;;;;;6.60;99.90;;;;;;5039343;28;19925;-63
2022/11/30 13:54:47;;;;;;;;;;;6.60;99.90;;;;;;5056726;28;19925;-63
2022/11/30 13:57:28;;;;;;;;;;;6.60;99.90;;;;;;5036541;28;19978;-63
2022/11/30 13:59:54;;;;;;;;;;;7.30;99.90;;;;;;5045420;28;19989;-63
2022/11/30 14:02:32;;;;;;;;;;;6.60;99.90;;;;;;5053491;28;19935;-63
2022/11/30 14:05:13;;;;;;;;;;;6.60;99.90;;;;;;5046439;28;20294;-62
2022/11/30 14:07:38;;;;;;;;;;;6.60;99.90;;;;;;5042999;28;20007;-64
2022/11/30 14:10:24;;;;;;;;;;;6.60;99.90;;;;;;5032746;28;19965;-63
2022/11/30 14:12:56;;;;;;;;;;;6.60;99.90;;;;;;5011710;28;20073;-65
2022/11/30 14:15:30;;;;;;;;;;;6.60;99.90;;;;;;5036291;28;20444;-64
2022/11/30 14:17:56;;;;;;;;;;;6.60;99.90;;;;;;5023435;28;19934;-63
2022/11/30 14:20:24;;;;;;;;;;;6.60;99.90;;;;;;5036070;28;19933;-64
2022/11/30 14:22:49;;;;;;;;;;;6.60;99.90;;;;;;5050743;27;20328;-63
2022/11/30 14:25:16;;;;;;;;;;;6.60;99.90;;;;;;5046845;28;19958;-63
2022/11/30 14:27:42;;;;;;;;;;;6.50;99.90;;;;;;5047730;28;19928;-65
2022/11/30 14:30:19;;;;;;;;;;;6.60;99.90;;;;;;5062232;28;20390;-64
2022/11/30 14:32:50;;;;;;;;;;;6.60;99.90;;;;;;5063077;28;20386;-62
2022/11/30 14:35:17;;;;;;;;;;;6.60;99.90;;;;;;5062913;28;20282;-64
2022/11/30 14:37:44;;;;;;;;;;;6.60;99.90;;;;;;5046387;28;20021;-64
2022/11/30 14:40:16;;;;;;;;;;;6.60;99.90;;;;;;5047036;28;19969;-65
2022/11/30 14:42:45;;;;;;;;;;;6.50;99.90;;;;;;5042074;28;20432;-64
2022/11/30 14:45:25;;;;;;;;;;;6.60;99.90;;;;;;5050556;28;19925;-62